Aviation Digital Data Service (ADDS)

Output produced by METARs form (0605 UTC 25 June 2018)
found at http://www.aviationweather.gov/adds/metars/
 
TAF LRTZ 250500Z 2506/2606 31006KT 9999 SCT100 
     TEMPO 2508/2514 02012KT BKN030 BKN090 
     BECMG 2516/2518 06006KT
       
LRCK 250600Z VRB03KT CAVOK 20/13 Q1018 NOSIG
TAF LRCK 250500Z 2506/2606 VRB04KT CAVOK 
     BECMG 2508/2510 10010KT 
     BECMG 2517/2519 VRB04KT 
     BECMG 2523/2601 02010KT
       
LRTC 250600Z 07004KT 350V120 9999 FEW050CB 22/12 Q1018
TAF LRTC 250500Z 2506/2515 VRB04KT CAVOK 
     BECMG 2511/2513 08010KT
       
TAF LRFT 250500Z 2506/2606 10006KT 9999 SCT040 BKN080 
     BECMG 2506/2508 08014KT BKN150
       
TAF LRBO 250500Z 2506/2606 16010KT 9999 BKN090 
     BECMG 2508/2510 BKN050 BKN150 
     BECMG 2516/2518 09004KT SCT100
       
LRBC 250600Z 00000KT CAVOK 16/11 Q1019
TAF LRBC 250500Z 2506/2515 VRB04KT CAVOK
       
LRIA 250600Z 25004KT 210V280 CAVOK 17/10 Q1019
TAF LRIA 250500Z 2506/2515 VRB04KT CAVOK
       
LRSV 250600Z VRB01KT CAVOK 17/08 Q1018
TAF LRSV 250500Z 2506/2515 VRB04KT CAVOK
       
LROP 250600Z 08003KT 350V130 CAVOK 19/13 Q1018 NOSIG
TAF LROP 250500Z 2506/2606 07006KT CAVOK
       
LRBS 250600Z VRB01KT CAVOK 20/11 Q1018 NOSIG
TAF LRBS 250500Z 2506/2606 06006KT CAVOK
       
LRCV 250600Z 07006KT CAVOK 18/10 Q1017
TAF LRCV 250500Z 2506/2515 09006KT CAVOK
       
LRSB 250600Z 07003KT 020V120 CAVOK 15/09 Q1019
TAF LRSB 250500Z 2506/2606 VRB04KT CAVOK 
     TEMPO 2510/2517 SCT040CB BKN060 
     TEMPO 2600/2605 5000 BR
       
LRAR 250600Z 14003KT 070V200 CAVOK 16/12 Q1018
TAF LRAR 250500Z 2506/2515 VRB04KT CAVOK
       
LRCL 250600Z VRB02KT CAVOK 13/09 Q1019
TAF LRCL 250500Z 2506/2515 VRB04KT CAVOK 
     TEMPO 2512/2515 5000 SHRA SCT035CB
       
LRTR 250600Z 13004KT CAVOK 16/13 Q1018
TAF LRTR 250500Z 2506/2606 10006KT CAVOK
       
LRTM 250600Z 06004KT 030V100 9999 FEW016 14/11 Q1019
TAF LRTM 250500Z 2506/2515 VRB04KT CAVOK 
     TEMPO 2512/2515 5000 SHRA SCT035CB
       
LRBM 250600Z 11003KT 9999 FEW050 16/10 Q1018
TAF LRBM 250500Z 2506/2515 VRB04KT CAVOK 
     TEMPO 2512/2515 SCT030CB
       
LRSM 250600Z 17005KT CAVOK 17/12 Q1018
TAF LRSM 250500Z 2506/2515 VRB04KT CAVOK
       
LROD 250600Z 19005KT 140V220 CAVOK 18/12 Q1018
TAF LROD 250500Z 2506/2515 VRB04KT CAVOK
       
LRCT 250600Z 16002KT 9999 BKN100 14/11 Q1019 BLU BLU
TAF LRCT 250500Z 2506/2606 VRB03KT 9999 SCT100 
     BECMG 2509/2511 16005KT SCT050 
     PROB40 
     TEMPO 2513/2517 SCT030CB 
     BECMG 2518/2520 33006KT BKN120